createdAt,value
2023-05-08T00:01:31.240Z,25.50
2023-05-08T00:03:58.705Z,19.98
2023-05-08T00:06:27.722Z,21.98
2023-05-08T00:08:55.816Z,21.85
2023-05-08T00:11:22.918Z,23.23
2023-05-08T00:13:49.937Z,21.77
2023-05-08T00:16:17.101Z,25.10
2023-05-08T00:18:44.447Z,27.00
2023-05-08T00:21:11.516Z,26.58
2023-05-08T00:23:38.485Z,27.05
2023-05-08T00:26:05.696Z,25.15
2023-05-08T00:28:32.698Z,27.70
2023-05-08T00:31:02.064Z,24.98
2023-05-08T00:33:29.295Z,26.70
2023-05-08T00:36:05.136Z,27.30
2023-05-08T00:38:36.914Z,24.13
2023-05-08T00:41:04.393Z,29.15
2023-05-08T00:43:31.447Z,29.02
2023-05-08T00:46:02.182Z,29.27
2023-05-08T00:48:34.267Z,30.67
2023-05-08T00:51:06.451Z,29.00
2023-05-08T00:53:39.093Z,26.63
2023-05-08T00:56:13.863Z,27.75
2023-05-08T00:58:43.329Z,27.83
2023-05-08T01:01:11.392Z,28.13
2023-05-08T01:03:38.647Z,27.25
2023-05-08T01:06:06.840Z,28.85
2023-05-08T01:08:34.927Z,25.02
2023-05-08T01:11:19.188Z,28.02
2023-05-08T01:13:52.363Z,29.63
2023-05-08T01:16:35.985Z,28.23
2023-05-08T01:19:22.524Z,29.50
2023-05-08T01:22:00.904Z,29.67
2023-05-08T01:25:21.009Z,28.20
2023-05-08T01:28:21.857Z,31.17
2023-05-08T01:31:14.497Z,29.70
2023-05-08T01:34:09.055Z,29.70
2023-05-08T01:37:08.381Z,28.40
2023-05-08T01:40:07.789Z,33.38
2023-05-08T01:42:50.794Z,35.70
2023-05-08T01:45:26.870Z,34.42
2023-05-08T01:48:11.989Z,34.90
2023-05-08T01:50:52.802Z,33.95
2023-05-08T01:53:43.492Z,35.80
2023-05-08T01:56:17.146Z,38.50
2023-05-08T01:58:46.785Z,35.28
2023-05-08T02:01:18.887Z,41.05
2023-05-08T02:03:48.590Z,34.53
2023-05-08T02:06:20.068Z,34.53
2023-05-08T02:08:48.801Z,33.38
2023-05-08T02:11:20.822Z,38.20
2023-05-08T02:13:49.934Z,35.17
2023-05-08T02:16:19.289Z,35.75
2023-05-08T02:18:52.682Z,35.17
2023-05-08T02:21:22.481Z,34.10
2023-05-08T02:23:52.282Z,34.92
2023-05-08T02:26:22.343Z,35.55
2023-05-08T02:28:53.402Z,33.35
2023-05-08T02:31:22.084Z,32.28
2023-05-08T02:33:50.795Z,36.40
2023-05-08T02:36:22.510Z,35.42
2023-05-08T02:38:54.194Z,34.60
2023-05-08T02:41:26.052Z,36.23
2023-05-08T02:43:53.766Z,38.33
2023-05-08T02:46:58.807Z,37.85
2023-05-08T02:50:13.592Z,35.35
2023-05-08T02:53:03.263Z,37.95
2023-05-08T02:55:49.557Z,36.15
2023-05-08T02:58:30.544Z,39.38
2023-05-08T03:01:07.418Z,37.55
2023-05-08T03:03:46.159Z,37.72
2023-05-08T03:06:19.440Z,38.95
2023-05-08T03:08:49.049Z,37.42
2023-05-08T03:11:22.636Z,35.03
2023-05-08T03:13:58.845Z,38.13
2023-05-08T03:16:34.882Z,36.15
2023-05-08T03:19:10.657Z,41.25
2023-05-08T03:21:40.926Z,39.58
2023-05-08T03:24:10.789Z,41.17
2023-05-08T03:26:38.387Z,37.05
2023-05-08T03:29:06.776Z,39.45
2023-05-08T03:31:36.949Z,44.38
2023-05-08T03:34:05.115Z,38.08
2023-05-08T03:36:32.366Z,38.88
2023-05-08T03:39:00.279Z,40.17
2023-05-08T03:41:27.546Z,42.35
2023-05-08T03:43:56.323Z,42.78
2023-05-08T03:46:25.752Z,37.38
2023-05-08T03:48:54.744Z,40.45
2023-05-08T03:51:22.532Z,41.83
2023-05-08T03:53:50.071Z,46.00
2023-05-08T03:56:18.158Z,37.25
2023-05-08T03:59:06.813Z,37.53
2023-05-08T04:01:40.898Z,38.95
2023-05-08T04:04:32.484Z,36.55
2023-05-08T04:07:06.520Z,41.72
2023-05-08T04:10:09.497Z,42.42
2023-05-08T04:13:07.200Z,41.10
2023-05-08T04:16:14.017Z,38.05
2023-05-08T04:18:49.773Z,40.53
2023-05-08T04:21:25.386Z,36.67
2023-05-08T04:23:57.768Z,40.53
2023-05-08T04:26:26.770Z,40.78
2023-05-08T04:28:57.102Z,43.20
2023-05-08T04:31:25.940Z,43.85
2023-05-08T04:33:54.203Z,40.55
2023-05-08T04:36:21.568Z,40.38
2023-05-08T04:38:48.788Z,41.28
2023-05-08T04:41:16.106Z,40.92
2023-05-08T04:43:43.998Z,43.95
2023-05-08T04:46:12.120Z,42.22
2023-05-08T04:48:39.801Z,40.08
2023-05-08T04:51:07.042Z,42.40
2023-05-08T04:53:34.073Z,40.70
2023-05-08T04:56:01.934Z,41.30
2023-05-08T04:58:29.710Z,38.45
2023-05-08T05:01:01.666Z,36.65
2023-05-08T05:03:28.764Z,37.00
2023-05-08T05:06:00.319Z,32.15
2023-05-08T05:08:27.836Z,35.67
2023-05-08T05:10:56.449Z,36.28
2023-05-08T05:13:23.836Z,35.13
2023-05-08T05:15:54.243Z,33.83
2023-05-08T05:18:22.170Z,34.00
2023-05-08T05:20:50.694Z,35.22
2023-05-08T05:23:17.940Z,35.25
2023-05-08T05:25:45.598Z,34.05
2023-05-08T05:28:13.659Z,32.00
2023-05-08T05:30:40.798Z,33.15
2023-05-08T05:33:08.188Z,32.33
2023-05-08T05:35:35.565Z,32.90
2023-05-08T05:38:02.624Z,32.08
2023-05-08T05:40:29.792Z,33.60
2023-05-08T05:42:56.956Z,31.77
2023-05-08T05:45:23.950Z,34.78
2023-05-08T05:47:53.957Z,32.33
2023-05-08T05:50:23.002Z,34.53
2023-05-08T05:52:50.796Z,39.45
2023-05-08T05:55:17.943Z,31.85
2023-05-08T05:57:47.407Z,33.75
2023-05-08T06:00:16.469Z,35.38
2023-05-08T06:02:48.965Z,39.35
2023-05-08T06:05:19.175Z,36.78
2023-05-08T06:07:46.437Z,40.97
2023-05-08T06:10:13.490Z,40.33
2023-05-08T06:12:40.766Z,39.17
2023-05-08T06:15:09.844Z,38.95
2023-05-08T06:17:37.181Z,38.03
2023-05-08T06:20:05.067Z,45.45
2023-05-08T06:22:32.143Z,42.03
2023-05-08T06:24:59.891Z,44.13
2023-05-08T06:27:26.881Z,43.60
2023-05-08T06:29:53.943Z,44.10
2023-05-08T06:32:22.078Z,45.45
2023-05-08T06:34:49.402Z,45.38
2023-05-08T06:37:16.410Z,44.60
2023-05-08T06:39:43.606Z,39.25
2023-05-08T06:42:10.951Z,42.33
2023-05-08T06:44:40.727Z,39.53
2023-05-08T06:47:08.445Z,42.10
2023-05-08T06:49:38.584Z,44.55
2023-05-08T06:52:05.626Z,42.08
2023-05-08T06:54:32.682Z,45.55
2023-05-08T06:56:59.729Z,45.15
2023-05-08T06:59:26.909Z,41.15
2023-05-08T07:01:53.908Z,45.22
2023-05-08T07:04:21.074Z,39.83
2023-05-08T07:06:48.085Z,50.38
2023-05-08T07:09:16.218Z,39.97
2023-05-08T07:11:43.702Z,46.55
2023-05-08T07:14:10.691Z,43.22
2023-05-08T07:16:37.933Z,38.80
2023-05-08T07:19:05.413Z,41.63
2023-05-08T07:21:32.424Z,45.63
2023-05-08T07:23:59.567Z,47.38
2023-05-08T07:26:26.577Z,40.80
2023-05-08T07:28:54.293Z,44.67
2023-05-08T07:31:22.307Z,42.35
2023-05-08T07:33:49.472Z,45.22
2023-05-08T07:36:16.799Z,42.80
2023-05-08T07:38:43.767Z,42.22
2023-05-08T07:41:10.797Z,45.17
2023-05-08T07:43:38.057Z,43.22
2023-05-08T07:46:05.982Z,47.97
2023-05-08T07:48:32.986Z,49.00
2023-05-08T07:50:59.961Z,56.88
2023-05-08T07:53:27.478Z,47.30
2023-05-08T07:55:54.531Z,42.50
2023-05-08T07:58:23.700Z,48.78
2023-05-08T08:00:51.289Z,45.50
2023-05-08T08:03:18.381Z,45.42
2023-05-08T08:05:45.558Z,50.67
2023-05-08T08:08:12.591Z,42.55
2023-05-08T08:10:39.736Z,53.58
2023-05-08T08:13:06.814Z,43.78
2023-05-08T08:15:33.862Z,50.55
2023-05-08T08:18:01.605Z,40.00
2023-05-08T08:20:28.727Z,43.30
2023-05-08T08:22:55.669Z,53.58
2023-05-08T08:25:22.776Z,44.65
2023-05-08T08:27:49.716Z,49.42
2023-05-08T08:30:18.579Z,45.53
2023-05-08T08:32:46.628Z,46.70
2023-05-08T08:35:14.463Z,49.38
2023-05-08T08:37:42.062Z,52.00
2023-05-08T08:40:09.824Z,50.58
2023-05-08T08:42:37.075Z,50.80
2023-05-08T08:45:04.648Z,42.15
2023-05-08T08:47:37.853Z,41.22
2023-05-08T08:50:07.969Z,41.10
2023-05-08T08:53:07.495Z,38.63
2023-05-08T08:55:40.935Z,40.00
2023-05-08T08:58:21.193Z,48.42
2023-05-08T09:00:50.159Z,43.85
2023-05-08T09:03:17.929Z,40.20
2023-05-08T09:05:45.921Z,40.67
2023-05-08T09:08:13.142Z,41.17
2023-05-08T09:10:40.957Z,40.05
2023-05-08T09:13:08.082Z,38.45
2023-05-08T09:15:35.444Z,43.97
2023-05-08T09:18:02.816Z,45.95
2023-05-08T09:20:30.726Z,44.08
2023-05-08T09:23:02.210Z,37.15
2023-05-08T09:25:47.369Z,44.58
2023-05-08T09:28:23.785Z,41.75
2023-05-08T09:30:59.117Z,39.28
2023-05-08T09:33:28.778Z,41.80
2023-05-08T09:35:57.612Z,38.72
2023-05-08T09:38:38.907Z,40.42
2023-05-08T09:41:16.834Z,37.08
2023-05-08T09:43:59.924Z,36.03
2023-05-08T09:46:27.380Z,51.53
2023-05-08T09:49:01.341Z,39.83
2023-05-08T09:53:59.655Z,40.45
2023-05-08T09:56:39.435Z,37.90
2023-05-08T09:59:29.234Z,35.17
2023-05-08T10:01:57.473Z,37.25
2023-05-08T10:04:36.495Z,35.08
2023-05-08T10:07:04.670Z,37.30
2023-05-08T10:09:42.699Z,36.63
2023-05-08T10:12:17.015Z,42.78
2023-05-08T10:14:46.490Z,44.95
2023-05-08T10:17:25.096Z,39.83
2023-05-08T10:20:02.716Z,34.35
2023-05-08T10:22:34.370Z,32.65
2023-05-08T10:25:03.433Z,33.47
2023-05-08T10:28:02.592Z,37.80
2023-05-08T10:30:31.957Z,50.83
2023-05-08T10:33:09.313Z,34.03
2023-05-08T10:35:40.516Z,50.60
2023-05-08T10:38:09.541Z,42.65
2023-05-08T10:40:38.218Z,31.17
2023-05-08T10:43:07.573Z,38.92
2023-05-08T10:45:36.195Z,33.42
2023-05-08T10:48:28.097Z,34.60
2023-05-08T10:51:23.987Z,35.90
2023-05-08T10:54:05.258Z,40.42
2023-05-08T10:56:32.442Z,40.58
2023-05-08T10:58:59.778Z,41.33
2023-05-08T11:01:27.229Z,39.80
2023-05-08T11:03:56.121Z,38.08
2023-05-08T11:06:49.131Z,43.70
2023-05-08T11:09:23.538Z,43.13
2023-05-08T11:12:16.177Z,41.30
2023-05-08T11:14:54.832Z,45.72
2023-05-08T11:17:26.434Z,46.65
2023-05-08T11:20:05.187Z,45.95
2023-05-08T11:22:34.039Z,52.22
2023-05-08T11:25:11.030Z,53.50
2023-05-08T11:27:47.142Z,53.10
2023-05-08T11:30:23.635Z,49.65
2023-05-08T11:33:03.166Z,53.20
2023-05-08T11:35:50.542Z,50.35
2023-05-08T11:38:28.593Z,48.63
2023-05-08T11:41:21.627Z,47.83
2023-05-08T11:44:09.689Z,50.30
2023-05-08T11:46:56.055Z,48.15
2023-05-08T11:49:28.996Z,47.70
2023-05-08T11:51:59.858Z,52.75
2023-05-08T11:54:30.825Z,46.03
2023-05-08T11:56:59.528Z,45.75
2023-05-08T11:59:26.926Z,43.97
2023-05-08T12:02:06.893Z,43.80
2023-05-08T12:04:45.560Z,44.88
2023-05-08T12:07:13.043Z,40.20
2023-05-08T12:09:40.172Z,37.95
2023-05-08T12:12:07.347Z,38.05
2023-05-08T12:14:35.022Z,36.03
2023-05-08T12:17:03.073Z,38.70
2023-05-08T12:19:30.069Z,36.25
2023-05-08T12:21:58.000Z,36.42
2023-05-08T12:24:26.270Z,33.10
2023-05-08T12:26:57.846Z,34.60
2023-05-08T12:29:28.057Z,32.35
2023-05-08T12:31:55.864Z,29.33
2023-05-08T12:34:23.894Z,31.83
2023-05-08T12:37:05.158Z,32.55
2023-05-08T12:39:37.584Z,29.25
2023-05-08T12:42:04.934Z,35.78
2023-05-08T12:44:32.269Z,43.15
2023-05-08T12:46:59.433Z,34.00
2023-05-08T12:49:29.978Z,37.58
2023-05-08T12:52:12.880Z,32.03
2023-05-08T12:54:48.312Z,37.75
2023-05-08T12:57:18.481Z,29.55
2023-05-08T12:59:48.032Z,26.58
2023-05-08T13:02:23.951Z,28.45
2023-05-08T13:04:59.367Z,32.03
2023-05-08T13:07:33.220Z,28.80
2023-05-08T13:10:04.528Z,32.33
2023-05-08T13:12:32.101Z,47.70
2023-05-08T13:14:59.299Z,29.95
2023-05-08T13:17:26.308Z,27.58
2023-05-08T13:19:53.360Z,26.25
2023-05-08T13:22:23.070Z,36.75
2023-05-08T13:24:50.174Z,33.58
2023-05-08T13:27:17.314Z,24.50
2023-05-08T13:29:44.373Z,32.90
2023-05-08T13:32:11.490Z,30.67
2023-05-08T13:34:44.263Z,39.58
2023-05-08T13:37:17.099Z,29.23
2023-05-08T13:39:44.138Z,37.83
2023-05-08T13:42:11.165Z,29.08
2023-05-08T13:44:38.068Z,25.48
2023-05-08T13:47:05.104Z,28.95
2023-05-08T13:49:32.131Z,23.42
2023-05-08T13:51:59.100Z,23.45
2023-05-08T13:54:26.078Z,21.80
2023-05-08T13:56:54.090Z,23.52
2023-05-08T13:59:21.410Z,23.90
2023-05-08T14:01:48.662Z,40.50
2023-05-08T14:04:15.779Z,25.88
2023-05-08T14:06:42.852Z,68.22
2023-05-08T14:09:09.905Z,40.00
2023-05-08T14:11:37.055Z,37.28
2023-05-08T14:14:04.945Z,39.80
2023-05-08T14:16:33.151Z,26.25
2023-05-08T14:19:00.441Z,41.33
2023-05-08T14:21:27.615Z,30.58
2023-05-08T14:23:55.004Z,25.23
2023-05-08T14:26:22.300Z,25.20
2023-05-08T14:28:49.467Z,24.15
2023-05-08T14:31:16.598Z,30.65
2023-05-08T14:33:43.681Z,23.48
2023-05-08T14:36:10.714Z,29.27
2023-05-08T14:38:37.808Z,37.35
2023-05-08T14:41:05.131Z,33.35
2023-05-08T14:43:32.422Z,38.35
2023-05-08T14:45:59.698Z,38.20
2023-05-08T14:48:27.561Z,32.42
2023-05-08T14:50:54.555Z,28.35
2023-05-08T14:53:21.890Z,33.97
2023-05-08T14:55:49.355Z,31.10
2023-05-08T14:58:16.795Z,27.73
2023-05-08T15:00:43.932Z,34.08
2023-05-08T15:03:11.086Z,38.78
2023-05-08T15:05:38.942Z,31.25
2023-05-08T15:08:06.232Z,34.47
2023-05-08T15:10:33.305Z,30.20
2023-05-08T15:13:00.641Z,29.67
2023-05-08T15:15:28.059Z,27.02
2023-05-08T15:17:55.307Z,33.80
2023-05-08T15:20:23.105Z,32.22
2023-05-08T15:22:50.134Z,27.48
2023-05-08T15:25:17.518Z,26.73
2023-05-08T15:27:44.683Z,27.33
2023-05-08T15:30:12.725Z,30.42
2023-05-08T15:32:40.306Z,26.85
2023-05-08T15:35:08.000Z,27.60
2023-05-08T15:37:37.044Z,25.90
2023-05-08T15:40:04.657Z,26.65
2023-05-08T15:42:31.908Z,26.48
2023-05-08T15:44:59.187Z,26.08
2023-05-08T15:47:27.467Z,25.92
2023-05-08T15:49:55.445Z,28.35
2023-05-08T15:52:22.847Z,26.58
2023-05-08T15:54:50.433Z,27.45
2023-05-08T15:57:17.655Z,26.63
2023-05-08T15:59:44.825Z,26.50
2023-05-08T16:02:11.877Z,24.65
2023-05-08T16:04:39.845Z,22.83
2023-05-08T16:07:11.132Z,23.23
2023-05-08T16:09:38.261Z,26.13
2023-05-08T16:12:05.875Z,22.85
2023-05-08T16:14:33.004Z,23.85
2023-05-08T16:17:00.050Z,22.75
2023-05-08T16:19:27.148Z,23.88
2023-05-08T16:21:54.201Z,30.85
2023-05-08T16:24:21.208Z,33.42
2023-05-08T16:26:48.330Z,22.38
2023-05-08T16:29:15.454Z,25.92
2023-05-08T16:31:42.549Z,27.92
2023-05-08T16:34:09.560Z,31.63
2023-05-08T16:36:36.843Z,32.28
2023-05-08T16:39:04.049Z,31.40
2023-05-08T16:41:31.076Z,32.15
2023-05-08T16:43:58.246Z,31.98
2023-05-08T16:46:30.088Z,32.72
2023-05-08T16:48:57.686Z,32.15
2023-05-08T16:51:24.844Z,31.60
2023-05-08T16:53:51.991Z,28.27
2023-05-08T16:56:19.090Z,28.48
2023-05-08T16:58:46.220Z,26.77
2023-05-08T17:01:14.227Z,29.42
2023-05-08T17:03:41.397Z,23.48
2023-05-08T17:06:09.055Z,24.95
2023-05-08T17:08:36.263Z,24.58
2023-05-08T17:11:03.395Z,26.23
2023-05-08T17:13:34.638Z,26.13
2023-05-08T17:16:09.518Z,29.10
2023-05-08T17:18:36.661Z,28.33
2023-05-08T17:21:15.020Z,26.08
2023-05-08T17:23:42.160Z,27.45
2023-05-08T17:26:09.221Z,25.58
2023-05-08T17:28:37.172Z,26.60
2023-05-08T17:31:06.113Z,25.67
2023-05-08T17:33:33.587Z,28.83
2023-05-08T17:36:02.003Z,29.98
2023-05-08T17:38:29.127Z,31.40
2023-05-08T17:40:56.630Z,47.80
2023-05-08T17:43:24.349Z,34.92
2023-05-08T17:45:51.450Z,36.75
2023-05-08T17:48:18.455Z,36.22
2023-05-08T17:50:46.864Z,39.05
2023-05-08T17:53:13.984Z,40.17
2023-05-08T17:55:41.106Z,40.40
2023-05-08T17:58:08.121Z,45.08
2023-05-08T18:00:35.166Z,46.05
2023-05-08T18:03:02.360Z,47.58
2023-05-08T18:05:30.462Z,45.00
2023-05-08T18:07:57.569Z,47.78
2023-05-08T18:10:24.644Z,46.13
2023-05-08T18:12:51.734Z,50.17
2023-05-08T18:15:18.722Z,50.55
2023-05-08T18:17:45.792Z,50.40
2023-05-08T18:20:13.089Z,52.25
2023-05-08T18:22:40.400Z,49.40
2023-05-08T18:25:08.057Z,48.92
2023-05-08T18:27:35.081Z,52.67
2023-05-08T18:30:02.269Z,47.85
2023-05-08T18:32:29.386Z,49.58
2023-05-08T18:34:57.222Z,54.67
2023-05-08T18:37:24.707Z,49.78
2023-05-08T18:39:51.691Z,51.78
2023-05-08T18:42:18.685Z,52.30
2023-05-08T18:44:46.259Z,49.30
2023-05-08T18:47:13.306Z,50.88
2023-05-08T18:49:40.428Z,50.53
2023-05-08T18:52:07.413Z,53.95
2023-05-08T18:54:34.402Z,50.80
2023-05-08T18:57:01.407Z,52.28
2023-05-08T18:59:28.431Z,56.72
2023-05-08T19:01:55.496Z,51.95
2023-05-08T19:04:22.488Z,51.67
2023-05-08T19:06:49.415Z,52.40
2023-05-08T19:09:16.544Z,54.03
2023-05-08T19:11:43.550Z,55.65
2023-05-08T19:14:10.565Z,56.38
2023-05-08T19:16:37.631Z,58.67
2023-05-08T19:19:04.838Z,52.45
2023-05-08T19:21:31.979Z,53.08
2023-05-08T19:23:59.097Z,52.80
2023-05-08T19:26:26.514Z,55.17
2023-05-08T19:28:53.725Z,53.30
2023-05-08T19:31:20.797Z,54.78
2023-05-08T19:33:48.925Z,54.50
2023-05-08T19:36:16.068Z,55.33
2023-05-08T19:38:43.159Z,56.97
2023-05-08T19:41:11.911Z,54.45
2023-05-08T19:43:38.884Z,55.25
2023-05-08T19:46:05.917Z,58.10
2023-05-08T19:48:32.857Z,53.40
2023-05-08T19:51:09.668Z,56.00
2023-05-08T19:53:36.651Z,57.25
2023-05-08T19:56:03.666Z,55.92
2023-05-08T19:58:31.679Z,61.42
2023-05-08T20:00:58.725Z,58.67
2023-05-08T20:03:25.970Z,61.25
2023-05-08T20:05:53.437Z,61.20
2023-05-08T20:08:20.520Z,61.42
2023-05-08T20:10:50.108Z,56.75
2023-05-08T20:13:17.862Z,61.38
2023-05-08T20:15:45.089Z,60.88
2023-05-08T20:18:12.308Z,64.90
2023-05-08T20:20:39.353Z,67.70
2023-05-08T20:23:06.331Z,63.08
2023-05-08T20:25:33.402Z,64.03
2023-05-08T20:28:00.515Z,67.68
2023-05-08T20:30:27.676Z,71.68
2023-05-08T20:32:54.803Z,72.95
2023-05-08T20:35:21.894Z,73.78
2023-05-08T20:37:49.334Z,74.47
2023-05-08T20:40:16.866Z,72.88
2023-05-08T20:42:43.995Z,75.55
2023-05-08T20:45:11.480Z,76.45
2023-05-08T20:47:38.644Z,76.25
2023-05-08T20:50:07.290Z,83.57
2023-05-08T20:52:36.067Z,74.38
2023-05-08T20:55:05.549Z,73.43
2023-05-08T20:57:32.575Z,76.78
2023-05-08T20:59:59.599Z,78.00
2023-05-08T21:02:26.659Z,77.28
2023-05-08T21:04:53.857Z,79.43
2023-05-08T21:07:20.991Z,72.30
2023-05-08T21:09:47.980Z,77.80
2023-05-08T21:12:14.968Z,71.03
2023-05-08T21:14:43.977Z,64.10
2023-05-08T21:17:11.274Z,75.55
2023-05-08T21:19:38.328Z,75.70
2023-05-08T21:22:05.437Z,76.60
2023-05-08T21:24:32.429Z,72.65
2023-05-08T21:27:01.994Z,67.45
2023-05-08T21:29:29.302Z,64.78
2023-05-08T21:31:56.507Z,63.35
2023-05-08T21:34:23.776Z,61.30
2023-05-08T21:36:50.922Z,57.38
2023-05-08T21:39:18.091Z,56.00
2023-05-08T21:41:46.206Z,58.88
2023-05-08T21:44:13.352Z,55.75
2023-05-08T21:46:40.351Z,56.35
2023-05-08T21:49:07.581Z,57.20
2023-05-08T21:51:35.226Z,50.25
2023-05-08T21:54:02.286Z,52.05
2023-05-08T21:56:29.272Z,53.42
2023-05-08T21:58:56.319Z,52.67
2023-05-08T22:01:23.288Z,54.25
2023-05-08T22:03:50.388Z,56.58
2023-05-08T22:06:17.452Z,55.67
2023-05-08T22:08:44.529Z,56.05
2023-05-08T22:11:11.625Z,60.90
2023-05-08T22:13:38.723Z,57.22
2023-05-08T22:16:06.556Z,57.55
2023-05-08T22:18:33.653Z,60.15
2023-05-08T22:21:00.684Z,61.92
2023-05-08T22:23:27.831Z,57.78
2023-05-08T22:25:54.842Z,60.97
2023-05-08T22:28:21.865Z,57.97
2023-05-08T22:30:48.851Z,56.75
2023-05-08T22:33:15.941Z,56.55
2023-05-08T22:35:43.009Z,57.08
2023-05-08T22:38:10.000Z,61.10
2023-05-08T22:40:37.062Z,59.67
2023-05-08T22:43:04.117Z,60.65
2023-05-08T22:45:32.378Z,60.92
2023-05-08T22:47:59.531Z,59.65
2023-05-08T22:50:26.621Z,63.70
2023-05-08T22:52:53.677Z,56.95
2023-05-08T22:55:20.827Z,62.70
2023-05-08T22:57:50.070Z,66.90
2023-05-08T23:00:17.366Z,59.50
2023-05-08T23:02:44.470Z,58.15
2023-05-08T23:05:12.956Z,62.58
2023-05-08T23:07:41.266Z,68.43
2023-05-08T23:10:08.810Z,63.13
2023-05-08T23:12:37.020Z,62.40
2023-05-08T23:15:04.666Z,62.33
2023-05-08T23:17:31.762Z,64.70
2023-05-08T23:19:58.738Z,65.78
2023-05-08T23:22:25.698Z,62.47
2023-05-08T23:24:52.839Z,64.50
2023-05-08T23:27:19.872Z,63.22
2023-05-08T23:29:46.990Z,62.88
2023-05-08T23:32:14.254Z,67.90
2023-05-08T23:34:44.304Z,60.38
2023-05-08T23:37:11.345Z,64.50
2023-05-08T23:39:41.222Z,64.07
2023-05-08T23:42:08.766Z,63.83
2023-05-08T23:44:35.915Z,70.50
2023-05-08T23:47:03.027Z,65.95
2023-05-08T23:49:30.060Z,68.10
2023-05-08T23:51:57.160Z,61.28
2023-05-08T23:54:24.201Z,66.75
2023-05-08T23:56:51.256Z,65.63
2023-05-08T23:59:18.293Z,74.97
